createdAt,value
2023-05-18T00:01:42.398Z,5.65
2023-05-18T00:04:10.339Z,5.28
2023-05-18T00:06:38.271Z,4.50
2023-05-18T00:11:33.850Z,5.07
2023-05-18T00:14:01.179Z,4.82
2023-05-18T00:16:28.647Z,4.95
2023-05-18T00:18:56.894Z,5.10
2023-05-18T00:21:30.877Z,4.68
2023-05-18T00:23:58.778Z,4.00
2023-05-18T00:28:54.805Z,4.43
2023-05-18T00:33:49.636Z,3.40
2023-05-18T00:36:17.649Z,3.33
2023-05-18T00:38:45.177Z,3.17
2023-05-18T00:41:12.758Z,3.38
2023-05-18T00:43:43.546Z,3.40
2023-05-18T00:46:12.155Z,3.10
2023-05-18T00:48:39.790Z,3.17
2023-05-18T00:51:07.425Z,3.50
2023-05-18T00:53:36.596Z,3.55
2023-05-18T00:56:05.038Z,3.42
2023-05-18T00:58:32.614Z,3.47
2023-05-18T01:01:03.064Z,3.83
2023-05-18T01:03:30.969Z,3.22
2023-05-18T01:08:27.545Z,3.47
2023-05-18T01:11:05.964Z,3.53
2023-05-18T01:13:46.953Z,3.00
2023-05-18T01:16:24.406Z,3.47
2023-05-18T01:19:01.176Z,4.20
2023-05-18T01:22:22.437Z,3.03
2023-05-18T01:24:59.996Z,3.13
2023-05-18T01:27:27.785Z,3.65
2023-05-18T01:29:56.699Z,3.42
2023-05-18T01:32:24.213Z,3.17
2023-05-18T01:34:54.297Z,3.05
2023-05-18T01:37:22.626Z,3.47
2023-05-18T01:39:51.467Z,3.20
2023-05-18T01:42:26.884Z,3.45
2023-05-18T01:45:02.653Z,3.25
2023-05-18T01:47:33.856Z,3.20
2023-05-18T01:50:06.669Z,3.30
2023-05-18T01:52:57.159Z,3.28
2023-05-18T01:55:28.473Z,4.10
2023-05-18T01:57:57.701Z,3.67
2023-05-18T02:00:26.686Z,3.80
2023-05-18T02:02:54.221Z,3.80
2023-05-18T02:05:21.783Z,3.53
2023-05-18T02:07:49.793Z,3.60
2023-05-18T02:10:17.203Z,3.72
2023-05-18T02:12:45.277Z,2.88
2023-05-18T02:15:12.738Z,3.58
2023-05-18T02:17:40.605Z,3.95
2023-05-18T02:20:32.844Z,3.40
2023-05-18T02:23:00.471Z,3.55
2023-05-18T02:27:55.447Z,3.20
2023-05-18T02:30:22.813Z,3.15
2023-05-18T02:32:51.856Z,3.53
2023-05-18T02:35:19.351Z,3.47
2023-05-18T02:37:47.611Z,3.45
2023-05-18T02:40:16.383Z,3.17
2023-05-18T02:42:44.333Z,3.40
2023-05-18T02:45:12.138Z,3.40
2023-05-18T02:47:44.395Z,3.50
2023-05-18T02:50:12.404Z,3.92
2023-05-18T02:52:42.018Z,3.30
2023-05-18T02:55:09.939Z,3.60
2023-05-18T02:57:57.515Z,3.55
2023-05-18T03:00:41.826Z,3.63
2023-05-18T03:03:11.373Z,3.38
2023-05-18T03:05:39.033Z,3.45
2023-05-18T03:08:07.657Z,3.28
2023-05-18T03:10:35.161Z,3.40
2023-05-18T03:13:02.822Z,3.72
2023-05-18T03:15:33.089Z,3.13
2023-05-18T03:18:01.166Z,3.53
2023-05-18T03:20:31.925Z,3.45
2023-05-18T03:22:59.366Z,3.33
2023-05-18T03:25:28.198Z,3.80
2023-05-18T03:27:55.676Z,3.30
2023-05-18T03:30:23.879Z,3.67
2023-05-18T03:32:51.242Z,4.00
2023-05-18T03:35:18.667Z,3.40
2023-05-18T03:37:46.286Z,3.80
2023-05-18T03:40:16.000Z,3.53
2023-05-18T03:42:45.393Z,3.60
2023-05-18T03:45:14.172Z,3.10
2023-05-18T03:47:42.982Z,3.63
2023-05-18T03:50:11.012Z,3.47
2023-05-18T03:52:39.851Z,3.60
2023-05-18T03:55:08.696Z,3.70
2023-05-18T03:57:36.404Z,3.70
2023-05-18T04:02:44.817Z,3.70
2023-05-18T04:05:15.549Z,3.63
2023-05-18T04:07:46.829Z,3.40
2023-05-18T04:10:14.866Z,3.65
2023-05-18T04:12:43.813Z,3.70
2023-05-18T04:15:14.829Z,3.60
2023-05-18T04:17:46.103Z,3.63
2023-05-18T04:20:14.956Z,3.65
2023-05-18T04:22:46.880Z,3.88
2023-05-18T04:25:16.408Z,4.40
2023-05-18T04:27:50.525Z,3.45
2023-05-18T04:30:19.161Z,3.50
2023-05-18T04:32:46.805Z,3.70
2023-05-18T04:35:14.552Z,3.67
2023-05-18T04:37:43.291Z,3.47
2023-05-18T04:40:18.058Z,3.85
2023-05-18T04:42:49.088Z,4.25
2023-05-18T04:45:27.405Z,4.35
2023-05-18T04:47:58.854Z,4.13
2023-05-18T04:50:26.453Z,3.78
2023-05-18T04:52:58.394Z,3.70
2023-05-18T04:55:29.592Z,3.97
2023-05-18T04:58:06.431Z,4.00
2023-05-18T05:00:35.463Z,3.83
2023-05-18T05:03:03.095Z,4.05
2023-05-18T05:05:31.945Z,3.92
2023-05-18T05:08:00.347Z,4.45
2023-05-18T05:10:34.710Z,3.85
2023-05-18T05:13:16.317Z,5.03
2023-05-18T05:15:45.105Z,4.40
2023-05-18T05:18:15.414Z,4.38
2023-05-18T05:20:43.477Z,5.35
2023-05-18T05:23:16.438Z,4.75
2023-05-18T05:25:54.573Z,4.50
2023-05-18T05:28:23.435Z,4.10
2023-05-18T05:30:51.253Z,4.10
2023-05-18T05:33:20.604Z,4.20
2023-05-18T05:35:49.103Z,3.70
2023-05-18T05:38:19.105Z,4.05
2023-05-18T05:40:47.935Z,4.10
2023-05-18T05:43:16.451Z,4.15
2023-05-18T05:45:49.323Z,4.22
2023-05-18T05:48:19.888Z,4.43
2023-05-18T05:50:50.059Z,4.10
2023-05-18T05:53:20.274Z,3.78
2023-05-18T05:55:50.779Z,4.57
2023-05-18T05:58:19.766Z,3.17
2023-05-18T06:00:55.383Z,4.15
2023-05-18T06:03:24.726Z,4.38
2023-05-18T06:05:58.214Z,3.95
2023-05-18T06:11:13.251Z,3.80
2023-05-18T06:13:56.246Z,4.63
2023-05-18T06:16:25.365Z,4.38
2023-05-18T06:18:54.224Z,4.25
2023-05-18T06:21:25.564Z,4.88
2023-05-18T06:23:55.857Z,4.20
2023-05-18T06:26:50.189Z,4.82
2023-05-18T06:29:43.796Z,4.25
2023-05-18T06:32:14.668Z,4.93
2023-05-18T06:34:49.662Z,4.50
2023-05-18T06:37:19.576Z,5.30
2023-05-18T06:39:50.139Z,6.30
2023-05-18T06:42:24.442Z,5.15
2023-05-18T06:45:01.920Z,6.50
2023-05-18T06:48:16.199Z,5.97
2023-05-18T06:50:44.688Z,5.50
2023-05-18T06:53:15.045Z,6.03
2023-05-18T06:55:43.317Z,5.13
2023-05-18T06:58:13.560Z,5.72
2023-05-18T07:00:43.189Z,5.85
2023-05-18T07:03:12.554Z,6.03
2023-05-18T07:05:42.853Z,5.10
2023-05-18T07:08:10.396Z,5.90
2023-05-18T07:13:06.794Z,6.75
2023-05-18T07:15:34.812Z,5.80
2023-05-18T07:18:02.704Z,5.88
2023-05-18T07:20:30.442Z,5.55
2023-05-18T07:22:59.505Z,5.50
2023-05-18T07:25:28.792Z,6.28
2023-05-18T07:28:20.589Z,6.40
2023-05-18T07:31:32.627Z,5.50
2023-05-18T07:34:05.305Z,6.25
2023-05-18T07:36:46.985Z,5.82
2023-05-18T07:39:34.943Z,6.15
2023-05-18T07:45:12.452Z,5.80
2023-05-18T07:47:45.719Z,6.03
2023-05-18T07:50:16.235Z,6.70
2023-05-18T07:53:08.322Z,6.10
2023-05-18T07:55:39.390Z,6.53
2023-05-18T07:58:09.948Z,7.15
2023-05-18T08:00:45.056Z,6.65
2023-05-18T08:03:19.407Z,6.68
2023-05-18T08:05:50.967Z,6.95
2023-05-18T08:08:19.676Z,6.15
2023-05-18T08:10:48.679Z,7.45
2023-05-18T08:13:36.051Z,8.00
2023-05-18T08:16:11.825Z,8.20
2023-05-18T08:18:50.748Z,7.95
2023-05-18T08:21:19.998Z,7.15
2023-05-18T08:23:55.032Z,7.18
2023-05-18T08:26:30.880Z,8.70
2023-05-18T08:29:31.675Z,7.43
2023-05-18T08:32:10.514Z,7.70
2023-05-18T08:34:55.163Z,8.82
2023-05-18T08:40:10.435Z,7.85
2023-05-18T08:43:10.673Z,8.00
2023-05-18T08:45:48.288Z,7.00
2023-05-18T08:48:17.265Z,6.90
2023-05-18T08:50:47.705Z,6.90
2023-05-18T08:53:17.651Z,7.18
2023-05-18T08:55:50.298Z,7.03
2023-05-18T08:58:20.765Z,7.30
2023-05-18T09:00:54.102Z,7.00
2023-05-18T09:03:22.608Z,6.82
2023-05-18T09:05:53.113Z,6.53
2023-05-18T09:08:24.609Z,6.90
2023-05-18T09:10:59.308Z,6.93
2023-05-18T09:13:32.573Z,7.38
2023-05-18T09:16:00.746Z,7.30
2023-05-18T09:18:30.199Z,7.93
2023-05-18T09:20:58.190Z,6.72
2023-05-18T09:23:26.137Z,6.25
2023-05-18T09:25:59.414Z,6.75
2023-05-18T09:28:37.311Z,7.00
2023-05-18T09:31:09.825Z,6.53
2023-05-18T09:33:39.127Z,6.32
2023-05-18T09:36:09.130Z,5.88
2023-05-18T09:38:38.816Z,6.82
2023-05-18T09:41:11.583Z,6.20
2023-05-18T09:43:39.931Z,5.55
2023-05-18T09:46:09.389Z,5.53
2023-05-18T09:48:39.125Z,6.28
2023-05-18T09:51:07.542Z,6.97
2023-05-18T09:53:41.014Z,7.40
2023-05-18T09:56:12.303Z,5.97
2023-05-18T09:58:40.201Z,6.20
2023-05-18T10:01:08.016Z,6.72
2023-05-18T10:03:37.931Z,6.45
2023-05-18T10:06:08.000Z,6.75
2023-05-18T10:08:36.878Z,7.10
2023-05-18T10:11:10.503Z,7.00
2023-05-18T10:13:38.384Z,7.00
2023-05-18T10:16:08.198Z,6.57
2023-05-18T10:18:37.301Z,7.53
2023-05-18T10:21:10.345Z,6.53
2023-05-18T10:23:38.081Z,7.10
2023-05-18T10:26:10.519Z,6.80
2023-05-18T10:28:43.178Z,6.78
2023-05-18T10:31:11.508Z,7.10
2023-05-18T10:33:39.120Z,6.80
2023-05-18T10:36:08.251Z,7.32
2023-05-18T10:38:40.264Z,6.10
2023-05-18T10:41:08.546Z,7.18
2023-05-18T10:43:37.275Z,6.35
2023-05-18T10:46:08.002Z,7.03
2023-05-18T10:48:40.809Z,7.15
2023-05-18T10:51:08.873Z,6.32
2023-05-18T10:53:37.181Z,6.10
2023-05-18T10:56:04.729Z,6.65
2023-05-18T11:01:03.504Z,5.57
2023-05-18T11:03:33.618Z,6.97
2023-05-18T11:06:03.552Z,6.10
2023-05-18T11:08:31.822Z,6.88
2023-05-18T11:11:05.377Z,4.95
2023-05-18T11:13:34.369Z,7.00
2023-05-18T11:16:08.502Z,6.70
2023-05-18T11:18:49.798Z,7.40
2023-05-18T11:21:43.300Z,8.25
2023-05-18T11:24:33.630Z,7.15
2023-05-18T11:27:07.839Z,7.13
2023-05-18T11:29:38.268Z,5.85
2023-05-18T11:32:29.328Z,5.70
2023-05-18T11:34:59.557Z,5.28
2023-05-18T11:37:43.210Z,6.40
2023-05-18T11:40:33.402Z,6.13
2023-05-18T11:43:01.263Z,7.22
2023-05-18T11:45:28.749Z,6.50
2023-05-18T11:48:00.486Z,5.78
2023-05-18T11:50:30.827Z,5.68
2023-05-18T11:52:59.969Z,5.35
2023-05-18T11:55:39.457Z,5.32
2023-05-18T11:58:09.582Z,5.00
2023-05-18T12:00:38.234Z,6.00
2023-05-18T12:03:07.079Z,5.55
2023-05-18T12:05:36.589Z,5.20
2023-05-18T12:08:04.907Z,6.03
2023-05-18T12:10:34.969Z,6.15
2023-05-18T12:13:03.730Z,5.85
2023-05-18T12:15:32.734Z,6.38
2023-05-18T12:18:01.029Z,5.90
2023-05-18T12:20:29.403Z,6.82
2023-05-18T12:22:58.191Z,7.82
2023-05-18T12:25:28.642Z,7.00
2023-05-18T12:27:57.324Z,6.18
2023-05-18T12:30:36.072Z,7.03
2023-05-18T12:33:04.558Z,5.28
2023-05-18T12:35:32.373Z,6.05
2023-05-18T12:38:00.999Z,5.35
2023-05-18T12:40:37.828Z,6.22
2023-05-18T12:43:05.175Z,5.90
2023-05-18T12:45:34.642Z,5.93
2023-05-18T12:48:12.427Z,6.85
2023-05-18T12:50:51.098Z,5.35
2023-05-18T12:53:18.879Z,5.88
2023-05-18T12:55:46.122Z,5.72
2023-05-18T12:58:19.388Z,5.47
2023-05-18T13:00:49.007Z,6.38
2023-05-18T13:03:18.270Z,7.07
2023-05-18T13:05:47.317Z,6.20
2023-05-18T13:08:20.243Z,6.13
2023-05-18T13:10:55.227Z,6.43
2023-05-18T13:13:29.040Z,5.20
2023-05-18T13:15:56.464Z,5.75
2023-05-18T13:20:54.012Z,6.22
2023-05-18T13:23:23.154Z,7.10
2023-05-18T13:25:51.472Z,7.15
2023-05-18T13:28:21.285Z,6.60
2023-05-18T13:30:50.829Z,8.18
2023-05-18T13:33:19.567Z,5.65
2023-05-18T13:35:48.864Z,4.72
2023-05-18T13:38:16.094Z,4.70
2023-05-18T13:40:43.484Z,4.75
2023-05-18T13:43:12.883Z,5.38
2023-05-18T13:45:41.803Z,4.57
2023-05-18T13:48:10.790Z,4.53
2023-05-18T13:50:39.244Z,4.50
2023-05-18T13:53:07.211Z,5.10
2023-05-18T13:55:35.702Z,5.07
2023-05-18T13:58:02.955Z,4.32
2023-05-18T14:00:33.755Z,4.53
2023-05-18T14:03:01.548Z,4.95
2023-05-18T14:05:29.312Z,5.28
2023-05-18T14:07:57.047Z,4.85
2023-05-18T14:10:24.428Z,4.97
2023-05-18T14:15:18.818Z,5.20
2023-05-18T14:17:46.418Z,5.13
2023-05-18T14:20:14.146Z,4.97
2023-05-18T14:22:41.544Z,4.47
2023-05-18T14:27:36.406Z,6.20
2023-05-18T14:30:04.314Z,5.72
2023-05-18T14:32:31.661Z,6.25
2023-05-18T14:37:26.416Z,4.85
2023-05-18T14:39:53.748Z,5.68
2023-05-18T14:44:48.164Z,4.10
2023-05-18T14:49:42.696Z,5.72
2023-05-18T14:52:09.935Z,6.30
2023-05-18T14:54:37.274Z,5.75
2023-05-18T14:57:05.008Z,6.18
2023-05-18T14:59:32.334Z,7.18
2023-05-18T15:01:59.869Z,7.00
2023-05-18T15:04:27.244Z,8.32
2023-05-18T15:06:54.485Z,6.35
2023-05-18T15:09:22.192Z,7.63
2023-05-18T15:11:51.022Z,7.68
2023-05-18T15:14:18.465Z,6.38
2023-05-18T15:16:47.129Z,6.70
2023-05-18T15:19:14.525Z,6.70
2023-05-18T15:24:09.223Z,4.18
2023-05-18T15:29:04.097Z,3.58
2023-05-18T15:31:31.485Z,3.28
2023-05-18T15:36:25.980Z,3.35
2023-05-18T15:38:53.271Z,5.07
2023-05-18T15:41:20.538Z,4.95
2023-05-18T15:43:47.746Z,5.20
2023-05-18T15:46:14.975Z,5.93
2023-05-18T15:48:42.383Z,5.25
2023-05-18T15:53:36.877Z,5.88
2023-05-18T15:58:31.426Z,5.00
2023-05-18T16:03:26.355Z,4.88
2023-05-18T16:05:53.804Z,4.75
2023-05-18T16:10:48.242Z,3.90
2023-05-18T16:13:15.555Z,4.38
2023-05-18T16:15:42.872Z,4.10
2023-05-18T16:18:10.178Z,4.10
2023-05-18T16:20:37.525Z,3.47
2023-05-18T16:23:04.960Z,3.83
2023-05-18T16:25:33.118Z,3.90
2023-05-18T16:28:00.453Z,4.05
2023-05-18T16:30:27.808Z,3.80
2023-05-18T16:32:55.203Z,3.47
2023-05-18T16:35:23.876Z,3.33
2023-05-18T16:37:51.270Z,3.47
2023-05-18T16:42:47.632Z,3.70
2023-05-18T16:45:15.522Z,3.42
2023-05-18T16:47:42.867Z,3.45
2023-05-18T16:50:11.164Z,4.28
2023-05-18T16:52:38.468Z,3.92
2023-05-18T16:55:06.374Z,3.42
2023-05-18T16:57:34.035Z,3.90
2023-05-18T17:02:38.370Z,3.63
2023-05-18T17:05:07.003Z,3.85
2023-05-18T17:07:35.128Z,3.67
2023-05-18T17:10:02.540Z,3.78
2023-05-18T17:12:30.143Z,3.63
2023-05-18T17:14:57.644Z,3.55
2023-05-18T17:17:24.980Z,4.68
2023-05-18T17:19:52.255Z,3.70
2023-05-18T17:22:19.412Z,3.85
2023-05-18T17:24:46.678Z,4.30
2023-05-18T17:27:14.243Z,4.50
2023-05-18T17:32:08.610Z,4.53
2023-05-18T17:34:35.851Z,4.30
2023-05-18T17:37:03.523Z,3.70
2023-05-18T17:41:58.066Z,4.25
2023-05-18T17:44:25.773Z,4.07
2023-05-18T17:46:53.370Z,3.75
2023-05-18T17:51:47.802Z,3.80
2023-05-18T17:54:15.387Z,4.63
2023-05-18T17:59:10.031Z,3.92
2023-05-18T18:01:38.203Z,3.90
2023-05-18T18:04:06.001Z,4.55
2023-05-18T18:09:05.161Z,3.80
2023-05-18T18:11:32.720Z,4.20
2023-05-18T18:16:27.941Z,4.72
2023-05-18T18:18:56.145Z,4.57
2023-05-18T18:21:23.621Z,4.00
2023-05-18T18:23:50.922Z,4.28
2023-05-18T18:26:18.752Z,4.65
2023-05-18T18:28:46.109Z,3.90
2023-05-18T18:31:15.297Z,4.78
2023-05-18T18:33:46.350Z,3.80
2023-05-18T18:36:14.000Z,3.53
2023-05-18T18:41:08.678Z,3.22
2023-05-18T18:43:39.038Z,3.17
2023-05-18T18:46:07.151Z,3.67
2023-05-18T18:48:34.868Z,3.38
2023-05-18T18:51:02.244Z,3.38
2023-05-18T18:53:30.456Z,3.83
2023-05-18T18:55:59.844Z,3.20
2023-05-18T18:58:27.370Z,3.88
2023-05-18T19:00:54.881Z,3.22
2023-05-18T19:03:22.359Z,3.55
2023-05-18T19:05:50.650Z,3.83
2023-05-18T19:08:18.122Z,3.60
2023-05-18T19:10:45.539Z,3.70
2023-05-18T19:13:12.939Z,4.47
2023-05-18T19:15:40.722Z,3.72
2023-05-18T19:18:08.369Z,3.67
2023-05-18T19:23:08.107Z,3.42
2023-05-18T19:25:35.494Z,3.17
2023-05-18T19:28:02.941Z,3.22
2023-05-18T19:30:30.543Z,4.00
2023-05-18T19:32:58.020Z,3.75
2023-05-18T19:35:25.513Z,3.40
2023-05-18T19:37:53.148Z,3.70
2023-05-18T19:40:22.967Z,3.67
2023-05-18T19:42:50.560Z,3.17
2023-05-18T19:45:17.955Z,3.28
2023-05-18T19:47:45.343Z,3.50
2023-05-18T19:50:12.854Z,4.22
2023-05-18T19:52:40.197Z,3.33
2023-05-18T19:55:07.937Z,3.70
2023-05-18T20:02:39.957Z,4.78
2023-05-18T20:07:35.544Z,3.70
2023-05-18T20:10:03.020Z,3.67
2023-05-18T20:12:33.568Z,3.15
2023-05-18T20:15:01.212Z,3.97
2023-05-18T20:20:17.324Z,3.42
2023-05-18T20:22:44.646Z,3.55
2023-05-18T20:25:12.375Z,3.22
2023-05-18T20:27:39.848Z,3.00
2023-05-18T20:30:08.664Z,3.60
2023-05-18T20:32:36.064Z,3.28
2023-05-18T20:35:03.665Z,3.33
2023-05-18T20:37:34.373Z,3.13
2023-05-18T20:40:07.584Z,3.08
2023-05-18T20:42:38.824Z,3.25
2023-05-18T20:45:07.676Z,3.65
2023-05-18T20:47:35.798Z,3.22
2023-05-18T20:50:04.378Z,3.40
2023-05-18T20:52:31.984Z,3.28
2023-05-18T20:54:59.340Z,3.95
2023-05-18T20:57:28.546Z,3.42
2023-05-18T20:59:56.297Z,3.45
2023-05-18T21:02:23.759Z,3.13
2023-05-18T21:04:51.241Z,3.35
2023-05-18T21:07:18.874Z,3.17
2023-05-18T21:09:46.446Z,3.33
2023-05-18T21:12:13.846Z,3.72
2023-05-18T21:14:41.361Z,3.90
2023-05-18T21:17:08.774Z,3.85
2023-05-18T21:19:36.387Z,3.90
2023-05-18T21:22:03.930Z,3.33
2023-05-18T21:24:31.380Z,4.03
2023-05-18T21:26:58.931Z,4.15
2023-05-18T21:29:26.459Z,4.35
2023-05-18T21:31:54.020Z,5.03
2023-05-18T21:34:21.627Z,4.28
2023-05-18T21:36:49.137Z,4.90
2023-05-18T21:39:16.588Z,4.30
2023-05-18T21:41:44.741Z,4.57
2023-05-18T21:44:12.448Z,4.47
2023-05-18T21:46:39.822Z,4.10
2023-05-18T21:49:13.264Z,3.60
2023-05-18T21:51:41.397Z,3.92
2023-05-18T21:54:08.852Z,4.03
2023-05-18T21:56:37.103Z,3.50
2023-05-18T21:59:04.453Z,3.70
2023-05-18T22:01:31.906Z,4.00
2023-05-18T22:03:59.296Z,3.45
2023-05-18T22:06:26.774Z,3.65
2023-05-18T22:08:54.144Z,3.90
2023-05-18T22:11:22.178Z,3.65
2023-05-18T22:13:49.505Z,3.50
2023-05-18T22:16:23.580Z,3.53
2023-05-18T22:18:51.090Z,3.67
2023-05-18T22:21:19.403Z,3.60
2023-05-18T22:23:46.658Z,3.58
2023-05-18T22:26:14.350Z,3.42
2023-05-18T22:28:41.680Z,3.17
2023-05-18T22:31:08.965Z,3.47
2023-05-18T22:33:36.327Z,3.38
2023-05-18T22:36:03.748Z,3.30
2023-05-18T22:38:31.150Z,3.40
2023-05-18T22:40:58.469Z,3.55
2023-05-18T22:43:26.714Z,3.38
2023-05-18T22:45:54.203Z,3.53
2023-05-18T22:48:21.665Z,3.40
2023-05-18T22:50:49.022Z,3.30
2023-05-18T22:53:16.283Z,3.30
2023-05-18T22:55:43.596Z,3.25
2023-05-18T22:58:10.948Z,3.50
2023-05-18T23:00:38.233Z,2.90
2023-05-18T23:03:05.652Z,3.85
2023-05-18T23:05:33.123Z,3.30
2023-05-18T23:08:02.285Z,2.90
2023-05-18T23:10:30.165Z,3.67
2023-05-18T23:12:58.686Z,4.28
2023-05-18T23:15:26.258Z,3.63
2023-05-18T23:17:55.032Z,3.65
2023-05-18T23:20:23.186Z,2.70
2023-05-18T23:22:50.538Z,3.00
2023-05-18T23:27:46.671Z,3.20
2023-05-18T23:30:14.367Z,2.92
2023-05-18T23:32:42.302Z,3.20
2023-05-18T23:35:12.528Z,3.13
2023-05-18T23:37:43.393Z,3.70
2023-05-18T23:40:15.182Z,3.25
2023-05-18T23:42:42.895Z,3.20
2023-05-18T23:45:10.889Z,3.30
2023-05-18T23:47:38.690Z,3.00
2023-05-18T23:50:07.005Z,2.75
2023-05-18T23:52:35.090Z,3.13
2023-05-18T23:55:04.479Z,3.33
2023-05-18T23:57:33.471Z,3.50
